createdAt,value
2022-09-27T00:01:04.101Z,99603.96
2022-09-27T00:03:31.514Z,99595.32
2022-09-27T00:06:25.593Z,99595.48
2022-09-27T00:08:53.871Z,99600.80
2022-09-27T00:11:34.747Z,99601.27
2022-09-27T00:14:03.520Z,99602.39
2022-09-27T00:16:31.924Z,99588.74
2022-09-27T00:19:04.090Z,99589.40
2022-09-27T00:21:31.559Z,99589.02
2022-09-27T00:23:58.914Z,99588.97
2022-09-27T00:26:25.816Z,99583.09
2022-09-27T00:28:52.617Z,99576.75
2022-09-27T00:31:24.818Z,99573.15
2022-09-27T00:33:52.729Z,99573.38
2022-09-27T00:36:20.117Z,99572.69
2022-09-27T00:38:47.380Z,99570.31
2022-09-27T00:41:19.651Z,99564.42
2022-09-27T00:43:46.294Z,99564.29
2022-09-27T00:46:14.927Z,99565.79
2022-09-27T00:48:42.141Z,99565.39
2022-09-27T00:51:09.506Z,99560.00
2022-09-27T00:53:45.855Z,99558.41
2022-09-27T00:56:15.697Z,99562.16
2022-09-27T00:58:45.909Z,99562.34
2022-09-27T01:01:13.758Z,99555.77
2022-09-27T01:03:47.793Z,99558.48
2022-09-27T01:06:14.540Z,99559.55
2022-09-27T01:08:41.895Z,99554.39
2022-09-27T01:11:24.610Z,99546.47
2022-09-27T01:14:21.461Z,99546.52
2022-09-27T01:16:53.525Z,99536.75
2022-09-27T01:19:20.280Z,99532.26
2022-09-27T01:21:58.476Z,99524.27
2022-09-27T01:24:48.051Z,99525.26
2022-09-27T01:27:41.416Z,99528.24
2022-09-27T01:30:20.960Z,99528.59
2022-09-27T01:33:08.501Z,99523.64
2022-09-27T01:35:44.033Z,99514.59
2022-09-27T01:38:16.201Z,99509.13
2022-09-27T01:41:24.311Z,99506.77
2022-09-27T01:44:04.163Z,99513.70
2022-09-27T01:47:02.345Z,99516.15
2022-09-27T01:49:36.762Z,99509.27
2022-09-27T01:52:05.552Z,99502.83
2022-09-27T01:54:37.211Z,99503.30
2022-09-27T01:57:04.565Z,99501.01
2022-09-27T01:59:37.540Z,99502.84
2022-09-27T02:02:07.334Z,99508.48
2022-09-27T02:04:34.421Z,99501.31
2022-09-27T02:07:51.238Z,99497.42
2022-09-27T02:10:25.967Z,99506.36
2022-09-27T02:12:57.577Z,99501.48
2022-09-27T02:15:24.478Z,99493.27
2022-09-27T02:17:51.322Z,99485.88
2022-09-27T02:20:39.979Z,99486.34
2022-09-27T02:23:16.554Z,99485.44
2022-09-27T02:25:46.698Z,99485.90
2022-09-27T02:28:30.425Z,99483.91
2022-09-27T02:30:57.511Z,99475.07
2022-09-27T02:33:59.343Z,99469.45
2022-09-27T02:36:26.190Z,99465.05
2022-09-27T02:38:52.934Z,99458.74
2022-09-27T02:41:20.601Z,99453.84
2022-09-27T02:43:59.940Z,99451.92
2022-09-27T02:46:37.903Z,99448.30
2022-09-27T02:49:54.973Z,99446.46
2022-09-27T02:52:28.169Z,99435.63
2022-09-27T02:55:14.365Z,99424.64
2022-09-27T02:58:06.495Z,99417.73
2022-09-27T03:00:59.488Z,99409.13
2022-09-27T03:03:29.471Z,99398.82
2022-09-27T03:06:02.205Z,99397.15
2022-09-27T03:08:29.401Z,99397.66
2022-09-27T03:10:56.039Z,99391.36
2022-09-27T03:13:23.292Z,99382.39
2022-09-27T03:15:50.340Z,99378.48
2022-09-27T03:18:17.799Z,99379.15
2022-09-27T03:20:44.643Z,99382.52
2022-09-27T03:23:12.209Z,99384.45
2022-09-27T03:25:40.181Z,99386.29
2022-09-27T03:28:11.017Z,99388.00
2022-09-27T03:30:38.835Z,99384.39
2022-09-27T03:33:05.742Z,99381.96
2022-09-27T03:35:33.296Z,99384.77
2022-09-27T03:38:00.760Z,99384.47
2022-09-27T03:40:27.884Z,99386.83
2022-09-27T03:42:56.301Z,99390.48
2022-09-27T03:45:23.047Z,99390.41
2022-09-27T03:47:50.001Z,99386.13
2022-09-27T03:50:17.151Z,99382.08
2022-09-27T03:52:44.513Z,99380.94
2022-09-27T03:55:12.282Z,99378.52
2022-09-27T03:57:39.947Z,99380.41
2022-09-27T04:00:07.715Z,99387.77
2022-09-27T04:02:34.509Z,99393.14
2022-09-27T04:05:01.513Z,99397.91
2022-09-27T04:07:30.477Z,99403.35
2022-09-27T04:09:58.786Z,99398.11
2022-09-27T04:12:25.736Z,99391.98
2022-09-27T04:14:54.732Z,99386.98
2022-09-27T04:17:21.890Z,99376.48
2022-09-27T04:19:49.958Z,99370.58
2022-09-27T04:22:17.320Z,99366.30
2022-09-27T04:24:44.066Z,99363.00
2022-09-27T04:27:11.020Z,99350.55
2022-09-27T04:29:41.814Z,99341.89
2022-09-27T04:32:09.321Z,99333.90
2022-09-27T04:34:54.804Z,99325.21
2022-09-27T04:37:22.159Z,99324.27
2022-09-27T04:39:49.207Z,99328.27
2022-09-27T04:42:17.379Z,99331.30
2022-09-27T04:44:44.529Z,99324.30
2022-09-27T04:47:11.475Z,99317.31
2022-09-27T04:49:39.239Z,99316.80
2022-09-27T04:52:06.489Z,99318.48
2022-09-27T04:54:33.957Z,99312.68
2022-09-27T04:57:00.909Z,99306.20
2022-09-27T04:59:27.736Z,99304.84
2022-09-27T05:01:55.133Z,99300.40
2022-09-27T05:04:22.855Z,99300.86
2022-09-27T05:06:54.901Z,99304.75
2022-09-27T05:09:23.915Z,99305.92
2022-09-27T05:11:50.649Z,99295.85
2022-09-27T05:14:17.963Z,99285.43
2022-09-27T05:16:45.098Z,99278.10
2022-09-27T05:19:12.917Z,99277.84
2022-09-27T05:21:39.966Z,99273.88
2022-09-27T05:24:07.218Z,99271.92
2022-09-27T05:26:34.263Z,99277.56
2022-09-27T05:29:01.211Z,99275.85
2022-09-27T05:31:29.245Z,99275.90
2022-09-27T05:33:56.428Z,99275.08
2022-09-27T05:36:23.270Z,99266.80
2022-09-27T05:38:50.727Z,99266.35
2022-09-27T05:41:17.707Z,99267.23
2022-09-27T05:43:45.842Z,99265.68
2022-09-27T05:46:12.756Z,99270.64
2022-09-27T05:48:42.746Z,99273.33
2022-09-27T05:51:14.061Z,99275.56
2022-09-27T05:53:40.801Z,99272.77
2022-09-27T05:56:08.348Z,99272.08
2022-09-27T05:58:35.375Z,99271.78
2022-09-27T06:01:09.483Z,99269.03
2022-09-27T06:03:40.490Z,99260.69
2022-09-27T06:06:07.651Z,99258.84
2022-09-27T06:08:35.619Z,99258.95
2022-09-27T06:11:07.704Z,99262.67
2022-09-27T06:13:44.598Z,99264.17
2022-09-27T06:16:12.010Z,99261.35
2022-09-27T06:18:39.194Z,99267.27
2022-09-27T06:21:08.827Z,99277.20
2022-09-27T06:23:37.292Z,99283.49
2022-09-27T06:26:05.522Z,99281.34
2022-09-27T06:28:34.917Z,99281.30
2022-09-27T06:31:01.677Z,99283.59
2022-09-27T06:33:28.874Z,99286.62
2022-09-27T06:35:55.819Z,99286.51
2022-09-27T06:38:24.401Z,99285.13
2022-09-27T06:40:51.713Z,99278.63
2022-09-27T06:43:20.446Z,99280.27
2022-09-27T06:45:47.550Z,99278.14
2022-09-27T06:48:17.509Z,99274.48
2022-09-27T06:50:45.502Z,99269.75
2022-09-27T06:53:14.390Z,99266.73
2022-09-27T06:55:41.004Z,99257.61
2022-09-27T06:58:28.238Z,99253.11
2022-09-27T07:00:55.309Z,99250.84
2022-09-27T07:03:28.432Z,99249.30
2022-09-27T07:06:02.010Z,99250.95
2022-09-27T07:08:29.029Z,99250.67
2022-09-27T07:10:56.388Z,99247.27
2022-09-27T07:13:23.455Z,99246.24
2022-09-27T07:15:51.213Z,99243.34
2022-09-27T07:18:18.688Z,99245.59
2022-09-27T07:20:45.834Z,99248.66
2022-09-27T07:23:12.783Z,99254.02
2022-09-27T07:25:39.534Z,99255.64
2022-09-27T07:28:07.914Z,99253.73
2022-09-27T07:30:36.334Z,99245.62
2022-09-27T07:33:05.906Z,99240.05
2022-09-27T07:35:32.966Z,99233.48
2022-09-27T07:37:59.904Z,99231.05
2022-09-27T07:40:26.884Z,99229.46
2022-09-27T07:42:55.536Z,99224.70
2022-09-27T07:45:24.410Z,99223.91
2022-09-27T07:47:53.423Z,99223.95
2022-09-27T07:50:20.576Z,99223.10
2022-09-27T07:52:49.759Z,99222.08
2022-09-27T07:55:16.937Z,99225.77
2022-09-27T07:57:47.211Z,99224.50
2022-09-27T08:00:17.060Z,99226.80
2022-09-27T08:02:44.273Z,99229.55
2022-09-27T08:05:11.800Z,99230.45
2022-09-27T08:07:39.361Z,99236.22
2022-09-27T08:10:07.123Z,99234.13
2022-09-27T08:12:34.177Z,99231.85
2022-09-27T08:15:02.764Z,99228.06
2022-09-27T08:17:31.862Z,99222.23
2022-09-27T08:19:58.604Z,99212.21
2022-09-27T08:22:28.268Z,99208.38
2022-09-27T08:24:56.312Z,99210.80
2022-09-27T08:27:23.342Z,99212.21
2022-09-27T08:29:50.909Z,99215.20
2022-09-27T08:32:23.097Z,99214.73
2022-09-27T08:34:50.950Z,99216.02
2022-09-27T08:37:17.650Z,99214.88
2022-09-27T08:39:47.961Z,99213.67
2022-09-27T08:42:25.734Z,99211.27
2022-09-27T08:45:16.133Z,99205.67
2022-09-27T08:47:59.911Z,99203.29
2022-09-27T08:50:39.525Z,99202.45
2022-09-27T08:53:17.627Z,99197.80
2022-09-27T08:55:48.979Z,99192.98
2022-09-27T08:58:28.013Z,99192.61
2022-09-27T09:00:56.957Z,99197.07
2022-09-27T09:03:26.109Z,99191.46
2022-09-27T09:06:10.847Z,99185.55
2022-09-27T09:08:57.488Z,99176.88
2022-09-27T09:12:01.815Z,99172.74
2022-09-27T09:15:17.514Z,99176.61
2022-09-27T09:17:45.085Z,99179.04
2022-09-27T09:20:16.800Z,99174.34
2022-09-27T09:23:17.804Z,99175.27
2022-09-27T09:26:03.598Z,99172.41
2022-09-27T09:28:54.021Z,99171.52
2022-09-27T09:31:25.248Z,99163.31
2022-09-27T09:34:14.986Z,99158.73
2022-09-27T09:36:48.144Z,99157.09
2022-09-27T09:39:39.256Z,99156.50
2022-09-27T09:42:14.287Z,99157.36
2022-09-27T09:45:07.199Z,99152.80
2022-09-27T09:47:39.100Z,99148.16
2022-09-27T09:50:19.054Z,99143.55
2022-09-27T09:52:59.001Z,99138.16
2022-09-27T09:55:28.453Z,99127.88
2022-09-27T09:58:01.697Z,99119.71
2022-09-27T10:00:29.360Z,99115.98
2022-09-27T10:02:58.529Z,99114.61
2022-09-27T10:05:26.273Z,99116.81
2022-09-27T10:07:56.130Z,99109.84
2022-09-27T10:10:23.590Z,99111.52
2022-09-27T10:12:51.560Z,99109.73
2022-09-27T10:15:19.945Z,99105.45
2022-09-27T10:17:51.558Z,99104.71
2022-09-27T10:20:33.850Z,99101.09
2022-09-27T10:23:21.066Z,99087.89
2022-09-27T10:25:58.032Z,99079.63
2022-09-27T10:28:34.307Z,99081.02
2022-09-27T10:31:07.069Z,99083.69
2022-09-27T10:33:36.627Z,99085.11
2022-09-27T10:36:03.447Z,99089.66
2022-09-27T10:38:32.792Z,99091.30
2022-09-27T10:41:23.767Z,99087.27
2022-09-27T10:43:51.742Z,99086.02
2022-09-27T10:46:26.268Z,99086.55
2022-09-27T10:49:28.852Z,99083.52
2022-09-27T10:52:17.789Z,99080.59
2022-09-27T10:55:05.459Z,99076.83
2022-09-27T10:57:32.410Z,99085.23
2022-09-27T11:00:01.406Z,99091.52
2022-09-27T11:02:34.227Z,99091.36
2022-09-27T11:05:15.346Z,99089.86
2022-09-27T11:07:53.696Z,99092.83
2022-09-27T11:10:28.407Z,99094.79
2022-09-27T11:13:12.688Z,99104.63
2022-09-27T11:15:53.727Z,99102.92
2022-09-27T11:18:42.607Z,99100.64
2022-09-27T11:21:28.902Z,99093.40
2022-09-27T11:24:03.674Z,99089.78
2022-09-27T11:26:50.966Z,99089.38
2022-09-27T11:29:55.599Z,99088.46
2022-09-27T11:32:42.625Z,99081.62
2022-09-27T11:35:56.578Z,99075.89
2022-09-27T11:38:52.106Z,99067.20
2022-09-27T11:41:25.300Z,99065.59
2022-09-27T11:44:02.285Z,99065.46
2022-09-27T11:46:41.338Z,99051.41
2022-09-27T11:49:41.656Z,99050.54
2022-09-27T11:52:15.539Z,99052.27
2022-09-27T11:55:16.631Z,99057.64
2022-09-27T11:58:10.826Z,99066.39
2022-09-27T12:00:49.924Z,99072.41
2022-09-27T12:03:56.135Z,99072.52
2022-09-27T12:06:41.114Z,99072.64
2022-09-27T12:09:19.642Z,99077.67
2022-09-27T12:11:59.496Z,99082.98
2022-09-27T12:14:41.836Z,99082.81
2022-09-27T12:17:16.234Z,99078.95
2022-09-27T12:19:50.308Z,99079.60
2022-09-27T12:22:46.790Z,99079.45
2022-09-27T12:25:18.278Z,99070.47
2022-09-27T12:28:14.389Z,99062.43
2022-09-27T12:30:42.805Z,99053.45
2022-09-27T12:33:17.918Z,99057.16
2022-09-27T12:35:51.156Z,99062.23
2022-09-27T12:38:38.256Z,99062.79
2022-09-27T12:41:05.410Z,99062.30
2022-09-27T12:43:34.717Z,99060.70
2022-09-27T12:46:08.294Z,99057.30
2022-09-27T12:48:41.212Z,99059.74
2022-09-27T12:51:10.042Z,99057.81
2022-09-27T12:54:03.278Z,99058.55
2022-09-27T12:56:43.542Z,99067.25
2022-09-27T12:59:40.094Z,99067.86
2022-09-27T13:03:03.832Z,99058.92
2022-09-27T13:06:27.559Z,99055.45
2022-09-27T13:09:06.588Z,99053.23
2022-09-27T13:12:11.210Z,99049.92
2022-09-27T13:14:44.523Z,99045.60
2022-09-27T13:17:39.946Z,99048.04
2022-09-27T13:20:31.979Z,99051.70
2022-09-27T13:22:59.241Z,99045.52
2022-09-27T13:25:56.414Z,99041.52
2022-09-27T13:28:28.880Z,99034.17
2022-09-27T13:30:56.489Z,99030.58
2022-09-27T13:33:34.240Z,99029.84
2022-09-27T13:36:24.124Z,99035.54
2022-09-27T13:39:06.737Z,99036.48
2022-09-27T13:41:37.070Z,99035.50
2022-09-27T13:44:23.064Z,99042.95
2022-09-27T13:46:53.774Z,99049.82
2022-09-27T13:49:26.174Z,99047.75
2022-09-27T13:51:57.116Z,99044.41
2022-09-27T13:54:33.895Z,99046.27
2022-09-27T13:57:01.611Z,99049.23
2022-09-27T13:59:35.811Z,99049.42
2022-09-27T14:02:29.233Z,99049.45
2022-09-27T14:04:56.092Z,99053.48
2022-09-27T14:07:38.969Z,99048.88
2022-09-27T14:10:06.977Z,99049.09
2022-09-27T14:12:35.462Z,99044.47
2022-09-27T14:15:03.537Z,99049.90
2022-09-27T14:17:32.527Z,99057.20
2022-09-27T14:19:59.576Z,99062.02
2022-09-27T14:22:26.321Z,99057.43
2022-09-27T14:24:55.210Z,99058.19
2022-09-27T14:27:26.223Z,99057.64
2022-09-27T14:29:57.558Z,99062.91
2022-09-27T14:32:26.165Z,99064.55
2022-09-27T14:35:04.407Z,99060.16
2022-09-27T14:37:32.485Z,99050.88
2022-09-27T14:40:05.670Z,99044.17
2022-09-27T14:42:36.133Z,99035.35
2022-09-27T14:45:16.884Z,99021.67
2022-09-27T14:47:46.149Z,99011.15
2022-09-27T14:50:18.463Z,99004.88
2022-09-27T14:52:46.843Z,99008.48
2022-09-27T14:55:18.511Z,99024.73
2022-09-27T14:57:47.451Z,99037.17
2022-09-27T15:00:20.189Z,99052.70
2022-09-27T15:02:47.826Z,99060.50
2022-09-27T15:05:19.513Z,99062.21
2022-09-27T15:07:46.674Z,99070.63
2022-09-27T15:10:16.625Z,99079.17
2022-09-27T15:12:47.481Z,99077.02
2022-09-27T15:15:16.530Z,99071.68
2022-09-27T15:17:43.689Z,99074.10
2022-09-27T15:20:35.792Z,99077.27
2022-09-27T15:23:04.559Z,99079.71
2022-09-27T15:25:34.253Z,99072.20
2022-09-27T15:28:04.353Z,99068.98
2022-09-27T15:30:36.942Z,99066.55
2022-09-27T15:33:04.712Z,99071.17
2022-09-27T15:35:33.770Z,99069.16
2022-09-27T15:38:28.750Z,99073.33
2022-09-27T15:41:31.580Z,99076.35
2022-09-27T15:44:03.104Z,99075.96
2022-09-27T15:46:40.766Z,99081.75
2022-09-27T15:49:19.097Z,99082.12
2022-09-27T15:51:48.430Z,99082.41
2022-09-27T15:54:22.566Z,99079.13
2022-09-27T15:56:55.523Z,99081.54
2022-09-27T15:59:26.430Z,99084.00
2022-09-27T16:01:58.074Z,99079.30
2022-09-27T16:04:27.181Z,99071.17
2022-09-27T16:06:54.493Z,99068.43
2022-09-27T16:09:21.443Z,99071.14
2022-09-27T16:11:49.000Z,99079.50
2022-09-27T16:14:17.893Z,99082.66
2022-09-27T16:16:50.014Z,99087.26
2022-09-27T16:19:17.504Z,99089.75
2022-09-27T16:21:45.116Z,99089.89
2022-09-27T16:24:15.201Z,99087.54
2022-09-27T16:26:42.326Z,99084.48
2022-09-27T16:29:14.008Z,99081.75
2022-09-27T16:31:42.095Z,99078.81
2022-09-27T16:34:11.092Z,99079.02
2022-09-27T16:36:38.595Z,99079.05
2022-09-27T16:39:12.405Z,99078.27
2022-09-27T16:41:43.037Z,99075.89
2022-09-27T16:44:12.017Z,99073.29
2022-09-27T16:46:43.060Z,99073.85
2022-09-27T16:49:31.035Z,99075.88
2022-09-27T16:52:01.479Z,99076.77
2022-09-27T16:54:28.910Z,99075.86
2022-09-27T16:56:56.992Z,99072.46
2022-09-27T16:59:24.868Z,99074.48
2022-09-27T17:01:52.011Z,99079.75
2022-09-27T17:04:19.978Z,99081.28
2022-09-27T17:06:47.021Z,99082.46
2022-09-27T17:09:14.479Z,99087.08
2022-09-27T17:11:41.729Z,99098.70
2022-09-27T17:14:16.462Z,99105.34
2022-09-27T17:16:45.186Z,99106.13
2022-09-27T17:19:12.654Z,99113.05
2022-09-27T17:21:40.284Z,99113.83
2022-09-27T17:24:08.343Z,99112.90
2022-09-27T17:26:35.783Z,99116.14
2022-09-27T17:29:03.914Z,99121.42
2022-09-27T17:31:34.214Z,99122.61
2022-09-27T17:34:02.158Z,99124.13
2022-09-27T17:36:37.012Z,99118.92
2022-09-27T17:39:04.143Z,99113.80
2022-09-27T17:41:35.332Z,99117.54
2022-09-27T17:44:07.126Z,99121.06
2022-09-27T17:46:35.947Z,99125.79
2022-09-27T17:49:22.722Z,99123.73
2022-09-27T17:51:51.179Z,99122.58
2022-09-27T17:54:19.093Z,99121.02
2022-09-27T17:56:46.627Z,99122.30
2022-09-27T17:59:17.799Z,99120.59
2022-09-27T18:01:45.700Z,99118.73
2022-09-27T18:04:14.609Z,99118.98
2022-09-27T18:06:43.486Z,99121.13
2022-09-27T18:09:11.227Z,99116.56
2022-09-27T18:11:39.239Z,99124.27
2022-09-27T18:14:07.173Z,99123.81
2022-09-27T18:16:38.886Z,99126.79
2022-09-27T18:19:07.554Z,99124.39
2022-09-27T18:21:34.638Z,99121.80
2022-09-27T18:24:05.745Z,99118.00
2022-09-27T18:26:36.107Z,99120.30
2022-09-27T18:29:16.827Z,99121.27
2022-09-27T18:31:48.256Z,99117.05
2022-09-27T18:34:17.266Z,99118.52
2022-09-27T18:36:44.261Z,99123.25
2022-09-27T18:39:18.485Z,99125.29
2022-09-27T18:41:50.152Z,99128.27
2022-09-27T18:44:18.371Z,99132.60
2022-09-27T18:46:45.807Z,99137.17
2022-09-27T18:49:13.473Z,99135.02
2022-09-27T18:51:43.362Z,99130.91
2022-09-27T18:54:18.783Z,99129.30
2022-09-27T18:56:47.952Z,99127.30
2022-09-27T18:59:16.797Z,99129.33
2022-09-27T19:01:45.225Z,99129.41
2022-09-27T19:04:23.649Z,99126.35
2022-09-27T19:06:52.924Z,99121.91
2022-09-27T19:09:19.622Z,99112.89
2022-09-27T19:11:47.089Z,99114.77
2022-09-27T19:14:18.140Z,99118.77
2022-09-27T19:16:46.479Z,99122.06
2022-09-27T19:19:15.957Z,99122.97
2022-09-27T19:21:43.605Z,99121.90
2022-09-27T19:24:11.275Z,99117.80
2022-09-27T19:26:38.945Z,99111.98
2022-09-27T19:29:06.312Z,99112.95
2022-09-27T19:31:35.897Z,99107.73
2022-09-27T19:34:03.868Z,99097.83
2022-09-27T19:36:31.381Z,99095.98
2022-09-27T19:39:01.608Z,99090.79
2022-09-27T19:41:29.277Z,99084.73
2022-09-27T19:43:57.051Z,99079.47
2022-09-27T19:46:25.252Z,99077.01
2022-09-27T19:48:52.294Z,99073.37
2022-09-27T19:51:21.079Z,99073.25
2022-09-27T19:53:48.134Z,99076.27
2022-09-27T19:56:15.400Z,99078.23
2022-09-27T19:58:44.505Z,99081.78
2022-09-27T20:01:19.686Z,99086.62
2022-09-27T20:03:47.224Z,99079.45
2022-09-27T20:06:15.403Z,99073.28
2022-09-27T20:08:43.346Z,99069.17
2022-09-27T20:11:18.224Z,99072.20
2022-09-27T20:13:49.280Z,99070.47
2022-09-27T20:16:20.012Z,99069.84
2022-09-27T20:18:50.124Z,99078.00
2022-09-27T20:21:17.514Z,99085.16
2022-09-27T20:23:47.743Z,99087.73
2022-09-27T20:26:15.718Z,99081.79
2022-09-27T20:28:47.280Z,99082.41
2022-09-27T20:31:16.470Z,99088.85
2022-09-27T20:33:45.786Z,99099.66
2022-09-27T20:36:29.114Z,99101.73
2022-09-27T20:39:02.252Z,99101.48
2022-09-27T20:41:31.416Z,99106.61
2022-09-27T20:44:02.735Z,99106.64
2022-09-27T20:46:30.524Z,99107.23
2022-09-27T20:49:03.231Z,99107.52
2022-09-27T20:51:33.663Z,99111.90
2022-09-27T20:54:01.432Z,99115.14
2022-09-27T20:56:33.810Z,99110.16
2022-09-27T20:59:03.249Z,99108.45
2022-09-27T21:01:30.270Z,99110.05
2022-09-27T21:03:59.230Z,99103.63
2022-09-27T21:06:27.041Z,99093.08
2022-09-27T21:08:53.993Z,99094.64
2022-09-27T21:11:21.456Z,99101.03
2022-09-27T21:13:49.402Z,99109.29
2022-09-27T21:16:21.419Z,99114.39
2022-09-27T21:18:52.341Z,99115.73
2022-09-27T21:21:20.021Z,99114.50
2022-09-27T21:23:47.477Z,99111.13
2022-09-27T21:26:19.137Z,99106.86
2022-09-27T21:28:51.208Z,99114.83
2022-09-27T21:31:22.477Z,99112.69
2022-09-27T21:33:55.472Z,99111.61
2022-09-27T21:36:23.014Z,99114.05
2022-09-27T21:38:50.067Z,99112.13
2022-09-27T21:41:18.051Z,99105.91
2022-09-27T21:43:45.408Z,99103.92
2022-09-27T21:46:19.258Z,99104.16
2022-09-27T21:48:47.931Z,99105.80
2022-09-27T21:51:19.881Z,99107.27
2022-09-27T21:53:50.035Z,99103.13
2022-09-27T21:56:17.057Z,99100.61
2022-09-27T21:58:44.314Z,99099.54
2022-09-27T22:01:14.941Z,99094.61
2022-09-27T22:03:43.051Z,99087.77
2022-09-27T22:06:18.061Z,99083.02
2022-09-27T22:08:45.731Z,99080.44
2022-09-27T22:11:14.928Z,99080.42
2022-09-27T22:13:41.726Z,99082.95
2022-09-27T22:16:11.229Z,99075.77
2022-09-27T22:18:38.443Z,99067.99
2022-09-27T22:21:07.237Z,99064.84
2022-09-27T22:23:34.284Z,99066.89
2022-09-27T22:26:29.402Z,99061.89
2022-09-27T22:28:58.189Z,99062.16
2022-09-27T22:31:25.365Z,99061.60
2022-09-27T22:33:57.112Z,99061.80
2022-09-27T22:36:24.169Z,99063.94
2022-09-27T22:38:51.728Z,99059.50
2022-09-27T22:41:19.806Z,99061.61
2022-09-27T22:43:47.373Z,99059.49
2022-09-27T22:46:14.263Z,99062.56
2022-09-27T22:48:41.795Z,99059.37
2022-09-27T22:51:09.537Z,99058.11
2022-09-27T22:53:37.233Z,99055.01
2022-09-27T22:56:06.594Z,99048.17
2022-09-27T22:58:36.051Z,99043.44
2022-09-27T23:01:13.618Z,99049.16
2022-09-27T23:03:41.063Z,99043.36
2022-09-27T23:06:08.676Z,99037.60
2022-09-27T23:08:37.776Z,99040.84
2022-09-27T23:11:17.324Z,99040.98
2022-09-27T23:13:44.481Z,99042.33
2022-09-27T23:16:13.226Z,99045.67
2022-09-27T23:18:41.659Z,99054.67
2022-09-27T23:21:10.255Z,99055.33
2022-09-27T23:23:40.223Z,99053.33
2022-09-27T23:26:09.373Z,99056.49
2022-09-27T23:28:36.013Z,99059.67
2022-09-27T23:31:08.557Z,99064.63
2022-09-27T23:33:37.725Z,99059.61
2022-09-27T23:36:05.468Z,99055.73
2022-09-27T23:38:32.209Z,99048.73
2022-09-27T23:40:59.708Z,99052.10
2022-09-27T23:43:27.135Z,99050.50
2022-09-27T23:45:56.645Z,99046.43
2022-09-27T23:48:25.133Z,99044.17
2022-09-27T23:50:51.993Z,99041.77
2022-09-27T23:53:19.547Z,99041.52
2022-09-27T23:55:46.804Z,99047.08
2022-09-27T23:58:14.573Z,99042.15
